Time;durP1;ratioP1;P1;durP2;ratioP2;P2;SDS_P1;SDS_P2;PMS_P1;PMS_P2;Temp;Humidity;BMP_temperature;BMP_pressure;BME280_temperature;BME280_humidity;BME280_pressure;Samples;Min_cycle;Max_cycle;Signal;HPM_P1;HPM_P2
2022/01/24 00:02:01;;;;;;;30.60;14.82;;;;;;;9.59;58.21;103456.56;4989918;28;114966;-77
2022/01/24 00:04:29;;;;;;;26.10;14.05;;;;;;;9.55;58.17;103459.22;4988852;28;123286;-74
2022/01/24 00:06:56;;;;;;;30.98;15.50;;;;;;;9.54;58.42;103449.50;4966190;28;122074;-75
2022/01/24 00:09:23;;;;;;;28.20;14.98;;;;;;;9.54;57.91;103454.78;4998170;28;114211;-76
2022/01/24 00:15:51;;;;;;;28.75;15.10;;;;;;;9.55;58.07;103456.56;4980917;28;123506;-76
2022/01/24 00:17:34;;;;;;;30.10;15.40;;;;;;;9.55;57.88;103451.28;4984726;28;121622;-75
2022/01/24 00:28:23;;;;;;;28.48;15.00;;;;;;;9.51;58.06;103446.88;4983250;28;124184;-77
2022/01/24 00:30:50;;;;;;;30.35;15.40;;;;;;;9.52;57.85;103445.97;4963412;28;113530;-77
2022/01/24 00:33:19;;;;;;;32.80;15.98;;;;;;;9.52;57.74;103445.97;4995889;28;113104;-77
2022/01/24 00:35:47;;;;;;;29.15;15.13;;;;;;;9.53;57.83;103442.47;4977547;28;122376;-77
2022/01/24 00:38:14;;;;;;;30.65;15.52;;;;;;;9.54;57.97;103444.22;4978565;28;122614;-77
2022/01/24 00:40:44;;;;;;;32.05;16.13;;;;;;;9.54;58.05;103438.94;4979186;28;113707;-76
2022/01/24 00:43:46;;;;;;;31.17;14.80;;;;;;;9.55;57.94;103438.06;4978927;28;113398;-77
2022/01/24 00:46:33;;;;;;;28.55;15.40;;;;;;;9.55;57.79;103438.06;4977249;28;123067;-75
2022/01/24 00:54:42;;;;;;;;;;;;;;;9.48;57.85;103438.94;4971396;28;113956;-77
2022/01/24 00:57:11;;;;;;;26.27;13.88;;;;;;;9.49;57.75;103435.41;4972075;28;124082;-77
2022/01/24 00:59:38;;;;;;;26.98;13.32;;;;;;;9.48;57.75;103431.00;4973997;28;124422;-75
2022/01/24 01:02:06;;;;;;;24.42;13.32;;;;;;;9.46;57.73;103429.22;4974284;28;115798;-75
2022/01/24 01:05:02;;;;;;;25.67;13.57;;;;;;;9.45;57.61;103433.63;4975359;28;114514;-77
2022/01/24 01:07:39;;;;;;;29.83;14.45;;;;;;;9.45;57.78;103427.44;4970793;28;123320;-76
2022/01/24 01:18:36;;;;;;;;;;;;;;;9.42;58.07;103428.34;4952330;28;123918;-77
2022/01/24 01:21:09;;;;;;;24.83;12.80;;;;;;;9.43;57.74;103430.09;4970433;28;124540;-77
2022/01/24 01:23:41;;;;;;;23.60;12.85;;;;;;;9.41;57.74;103426.56;4953980;28;113149;-77
2022/01/24 01:26:21;;;;;;;26.55;13.57;;;;;;;9.40;57.60;103419.53;4953871;28;113040;-77
2022/01/24 01:28:54;;;;;;;24.98;12.75;;;;;;;9.37;57.62;103419.50;4966730;28;124199;-77
2022/01/24 01:31:36;;;;;;;25.10;12.85;;;;;;;9.36;56.83;103420.38;4969164;28;123871;-77
2022/01/24 01:34:34;;;;;;;23.20;12.48;;;;;;;9.34;57.35;103424.78;4991644;28;114825;-77
2022/01/24 01:56:00;;;;;;;23.63;12.95;;;;;;;9.33;57.08;103407.16;4970337;28;115107;-77
2022/01/24 01:58:29;;;;;;;26.45;13.18;;;;;;;9.32;57.36;103415.97;4970811;28;115440;-77
2022/01/24 02:00:58;;;;;;;25.50;13.75;;;;;;;9.32;57.50;103415.97;4985766;28;123960;-77
2022/01/24 02:03:27;;;;;;;25.42;12.68;;;;;;;9.33;57.34;103412.47;4952742;28;122698;-77
2022/01/24 02:05:55;;;;;;;23.98;12.68;;;;;;;9.33;56.96;103412.47;4968771;28;113126;-77
2022/01/24 02:08:28;;;;;;;24.10;12.93;;;;;;;9.32;57.26;103415.97;4969445;28;112893;-77
2022/01/24 02:10:58;;;;;;;24.67;12.30;;;;;;;9.32;57.41;103410.69;4970865;28;123388;-77
2022/01/24 02:13:27;;;;;;;21.60;12.38;;;;;;;9.30;57.26;103407.16;4971387;28;124168;-77
2022/01/24 02:16:21;;;;;;;23.00;12.65;;;;;;;9.28;56.88;103408.91;4969003;28;113938;-77
2022/01/24 02:18:54;;;;;;;25.55;13.27;;;;;;;9.25;56.92;103408.91;4977391;28;112992;-77
2022/01/24 02:21:41;;;;;;;22.92;12.68;;;;;;;9.24;57.00;103407.16;4970825;28;122376;-76
2022/01/24 02:24:10;;;;;;;25.55;13.27;;;;;;;9.23;57.27;103402.72;5005517;28;124004;-77
2022/01/24 02:26:38;;;;;;;25.15;13.43;;;;;;;9.23;57.04;103405.38;4989123;28;114020;-77
2022/01/24 02:29:13;;;;;;;25.15;13.13;;;;;;;9.21;57.17;103396.56;4989297;28;113679;-76
2022/01/24 02:31:51;;;;;;;24.58;12.93;;;;;;;9.20;57.32;103394.81;4989531;28;123691;-77
2022/01/24 02:34:29;;;;;;;24.35;12.85;;;;;;;9.19;57.25;103398.31;4988287;28;122731;-77
2022/01/24 02:37:01;;;;;;;26.60;13.77;;;;;;;9.19;57.29;103398.31;4988521;28;114749;-77
2022/01/24 02:39:45;;;;;;;24.67;12.98;;;;;;;9.18;57.33;103396.56;4964067;28;113827;-77
2022/01/24 02:53:33;;;;;;;26.90;13.15;;;;;;;9.08;57.13;103401.84;4984187;28;125155;-77
2022/01/24 02:56:01;;;;;;;24.23;12.85;;;;;;;9.06;57.53;103398.31;4985067;28;123445;-76
2022/01/24 02:58:28;;;;;;;23.90;13.07;;;;;;;9.05;57.23;103391.25;4985143;28;113011;-77
2022/01/24 03:00:57;;;;;;;25.38;13.57;;;;;;;9.06;57.59;103393.03;4975291;28;113675;-77
2022/01/24 03:03:25;;;;;;;28.20;13.63;;;;;;;9.06;57.19;103393.03;4974483;28;122203;-77
2022/01/24 03:05:52;;;;;;;25.30;12.65;;;;;;;9.06;57.40;103392.13;4988137;28;123941;-76
2022/01/24 03:08:22;;;;;;;25.83;13.43;;;;;;;9.05;57.16;103385.94;4988489;28;113188;-77
2022/01/24 03:10:51;;;;;;;23.83;13.13;;;;;;;9.05;57.44;103385.94;4988129;28;112170;-77
2022/01/24 03:13:30;;;;;;;24.98;12.95;;;;;;;9.05;57.42;103380.66;4988829;28;124500;-77
2022/01/24 03:15:59;;;;;;;23.58;12.93;;;;;;;9.03;57.52;103377.13;4988019;28;123129;-77
2022/01/24 03:18:28;;;;;;;24.17;12.70;;;;;;;9.03;57.21;103382.44;5007468;28;113513;-77
2022/01/24 03:20:55;;;;;;;24.45;12.77;;;;;;;9.03;57.34;103376.25;4989717;28;113874;-77
2022/01/24 03:23:24;;;;;;;23.92;12.73;;;;;;;9.03;57.11;103377.13;4989208;28;123781;-76
2022/01/24 03:25:52;;;;;;;22.05;12.63;;;;;;;9.01;57.15;103373.63;4987308;28;122088;-77
2022/01/24 03:28:23;;;;;;;22.08;11.98;;;;;;;8.99;57.29;103370.09;4988686;28;114426;-77
2022/01/24 03:30:50;;;;;;;20.55;11.75;;;;;;;8.97;57.06;103377.13;4989698;28;112984;-77
2022/01/24 03:33:17;;;;;;;21.92;11.93;;;;;;;8.95;57.06;103369.19;4971253;28;123427;-76
2022/01/24 03:35:44;;;;;;;20.63;12.45;;;;;;;8.96;57.10;103375.34;4989339;28;124365;-77
2022/01/24 03:38:13;;;;;;;24.02;12.70;;;;;;;8.97;57.17;103379.78;4987571;28;114248;-77
2022/01/24 03:40:41;;;;;;;21.52;12.48;;;;;;;8.97;57.28;103371.84;4971043;28;113055;-77
2022/01/24 03:43:08;;;;;;;26.05;12.70;;;;;;;8.96;57.00;103378.00;4989151;28;124031;-77
2022/01/24 03:45:40;;;;;;;23.27;12.63;;;;;;;8.98;56.97;103373.59;4988910;28;123457;-77
2022/01/24 03:48:12;;;;;;;24.17;12.35;;;;;;;8.98;57.05;103384.16;4989214;28;114094;-76
2022/01/24 03:50:40;;;;;;;25.83;13.32;;;;;;;8.98;57.20;103373.59;4988828;28;114008;-77
2022/01/24 03:53:07;;;;;;;25.88;12.65;;;;;;;8.98;57.35;103378.88;4988789;28;124323;-77
2022/01/24 03:55:34;;;;;;;24.30;12.52;;;;;;;8.98;57.36;103373.59;4988425;28;123547;-77
2022/01/24 03:58:01;;;;;;;25.27;12.75;;;;;;;8.98;57.05;103368.31;4988215;28;114732;-77
2022/01/24 04:00:28;;;;;;;23.52;12.55;;;;;;;8.98;56.99;103368.31;4987796;28;113518;-77
2022/01/24 04:02:56;;;;;;;24.92;12.50;;;;;;;8.95;57.17;103369.19;4987381;28;124026;-77
2022/01/24 04:05:23;;;;;;;22.63;11.85;;;;;;;8.94;56.88;103363.91;4970769;28;123118;-77
2022/01/24 04:07:50;;;;;;;20.40;11.32;;;;;;;8.92;57.23;103360.38;4990948;28;113157;-77
2022/01/24 04:10:20;;;;;;;21.75;11.63;;;;;;;8.91;56.81;103356.84;4993581;28;97057;-77
2022/01/24 04:12:50;;;;;;;21.10;11.95;;;;;;;8.91;56.98;103350.66;4990892;28;123419;-77
2022/01/24 04:15:44;;;;;;;22.27;11.50;;;;;;;8.90;56.84;103370.94;4990503;28;123086;-77
2022/01/24 04:18:30;;;;;;;20.98;11.65;;;;;;;8.89;56.93;103368.28;4992358;28;114685;-76
2022/01/24 04:23:48;;;;;;;20.25;10.73;;;;;;;8.84;57.04;103376.22;4990242;28;124410;-77
2022/01/24 04:26:15;;;;;;;17.92;10.00;;;;;;;8.81;56.74;103359.47;4992016;28;123371;-77
2022/01/24 04:28:42;;;;;;;19.20;10.27;;;;;;;8.77;56.71;103364.72;4990290;28;114782;-77
2022/01/24 04:31:10;;;;;;;18.58;9.80;;;;;;;8.76;56.70;103362.09;4991139;28;116246;-77
2022/01/24 04:33:37;;;;;;;21.15;10.30;;;;;;;8.75;57.07;103366.47;4991963;28;125294;-77
2022/01/24 04:36:04;;;;;;;18.83;9.55;;;;;;;8.74;56.94;103364.75;4990326;28;123286;-77
2022/01/24 04:38:32;;;;;;;18.27;10.27;;;;;;;8.74;56.92;103380.59;4974440;28;113253;-77
2022/01/24 04:41:03;;;;;;;16.63;9.48;;;;;;;8.73;56.96;103378.81;4990352;28;113222;-77
2022/01/24 04:43:49;;;;;;;18.85;9.57;;;;;;;8.71;57.10;103375.28;4988853;28;124089;-77
2022/01/24 04:46:32;;;;;;;17.98;9.60;;;;;;;8.71;56.88;103380.56;4990646;28;123964;-77
2022/01/24 04:54:26;;;;;;;18.15;9.75;;;;;;;8.67;56.75;103365.59;4989519;28;123143;-77
2022/01/24 04:56:53;;;;;;;16.38;8.82;;;;;;;8.65;57.14;103364.69;4990317;28;122885;-77
2022/01/24 04:59:20;;;;;;;16.38;9.15;;;;;;;8.66;57.03;103377.00;4990478;28;112973;-77
2022/01/24 05:01:47;;;;;;;16.77;9.82;;;;;;;8.65;56.92;103377.91;4990337;28;113530;-76
2022/01/24 05:04:14;;;;;;;18.98;10.05;;;;;;;8.64;56.81;103376.13;4973627;28;123511;-77
2022/01/24 05:06:42;;;;;;;17.45;9.25;;;;;;;8.65;57.29;103375.25;4989825;28;123278;-77
2022/01/24 05:09:09;;;;;;;19.33;9.57;;;;;;;8.65;56.90;103380.56;4992015;28;113185;-77
2022/01/24 05:11:43;;;;;;;17.77;9.48;;;;;;;8.64;57.06;103378.78;4990693;28;114366;-77
2022/01/24 05:25:17;;;;;;;19.27;9.73;;;;;;;8.53;56.83;103370.81;4989633;28;124045;-77
2022/01/24 05:27:45;;;;;;;19.67;10.00;;;;;;;8.52;57.37;103363.75;4989900;28;122745;-77
2022/01/24 05:30:14;;;;;;;18.67;9.55;;;;;;;8.51;57.06;103363.75;4989807;28;113281;-77
2022/01/24 05:32:41;;;;;;;16.73;9.32;;;;;;;8.51;56.86;103371.69;5008817;28;113753;-77
2022/01/24 05:35:09;;;;;;;19.35;9.10;;;;;;;8.50;56.99;103369.94;4991600;28;124339;-77
2022/01/24 05:37:36;;;;;;;17.98;9.40;;;;;;;8.51;57.13;103366.41;5007910;28;123147;-77
2022/01/24 05:40:04;;;;;;;16.58;9.38;;;;;;;8.51;57.10;103366.41;4992870;28;114184;-78
2022/01/24 05:42:31;;;;;;;17.23;9.48;;;;;;;8.52;56.88;103373.47;4991268;28;113766;-77
2022/01/24 05:44:59;;;;;;;15.98;9.00;;;;;;;8.50;57.36;103375.22;4990569;28;124238;-76
2022/01/24 05:47:26;;;;;;;16.20;8.77;;;;;;;8.49;57.26;103373.44;4974012;28;123078;-78
2022/01/24 05:49:53;;;;;;;16.38;9.00;;;;;;;8.50;57.34;103372.56;4991240;28;114720;-77
2022/01/24 05:52:20;;;;;;;16.73;9.18;;;;;;;8.50;56.97;103377.84;4992327;28;113196;-77
2022/01/24 05:54:47;;;;;;;13.70;8.25;;;;;;;8.50;57.03;103380.50;4990830;28;123630;-77
2022/01/24 05:57:15;;;;;;;16.35;9.10;;;;;;;8.47;56.82;103377.81;4990395;28;123034;-77
2022/01/24 05:59:42;;;;;;;16.45;8.57;;;;;;;8.45;56.90;103383.09;4990204;28;113859;-77
2022/01/24 06:02:09;;;;;;;14.80;8.35;;;;;;;8.44;57.05;103386.63;4974036;28;113016;-77
2022/01/24 06:04:36;;;;;;;16.52;8.50;;;;;;;8.42;56.76;103382.19;5006781;28;123499;-77
2022/01/24 06:07:03;;;;;;;15.23;8.35;;;;;;;8.42;57.02;103387.47;4991003;28;123688;-77
2022/01/24 06:09:30;;;;;;;15.68;8.95;;;;;;;8.41;56.89;103380.41;5006147;28;114759;-77
2022/01/24 06:11:57;;;;;;;17.77;8.93;;;;;;;8.35;57.19;103374.22;4989965;28;114161;-77
2022/01/24 06:14:24;;;;;;;14.30;8.00;;;;;;;8.33;56.88;103378.59;4991318;28;124700;-76
2022/01/24 06:16:52;;;;;;;16.63;9.07;;;;;;;8.30;57.18;103378.59;5005628;28;124619;-77
2022/01/24 06:19:19;;;;;;;14.38;8.63;;;;;;;8.28;56.94;103380.34;4990217;28;112453;-77
2022/01/24 06:21:46;;;;;;;14.93;8.95;;;;;;;8.30;56.94;103386.50;4973175;28;113362;-78
2022/01/24 06:24:13;;;;;;;15.90;8.63;;;;;;;8.32;57.09;103386.50;4990205;28;123127;-76
2022/01/24 06:27:04;;;;;;;15.05;8.40;;;;;;;8.30;57.19;103378.59;4990449;28;124216;-77
2022/01/24 06:29:31;;;;;;;14.88;8.27;;;;;;;8.31;57.02;103380.38;4989021;28;115446;-76
2022/01/24 06:31:58;;;;;;;16.67;8.35;;;;;;;8.28;57.17;103377.69;4989938;28;114033;-78
2022/01/24 06:34:25;;;;;;;18.20;8.55;;;;;;;8.26;57.55;103381.22;4990743;28;123946;-77
2022/01/24 06:36:52;;;;;;;15.38;7.97;;;;;;;8.26;57.25;103379.44;4973302;28;123833;-77
2022/01/24 06:39:20;;;;;;;19.40;8.30;;;;;;;8.25;57.38;103374.16;5007452;28;114896;-77
2022/01/24 06:42:13;;;;;;;17.30;8.80;;;;;;;8.27;57.40;103380.31;4996829;28;114385;-77
2022/01/24 06:44:35;;;;;;;13.63;7.88;;;;;;;8.26;57.27;103376.81;4992272;28;124156;-77
2022/01/24 06:47:02;;;;;;;13.82;8.15;;;;;;;8.25;57.42;103376.78;4989945;28;123359;-77
2022/01/24 06:49:31;;;;;;;13.30;8.40;;;;;;;8.23;57.19;103382.09;4990019;28;114191;-77
2022/01/24 06:51:58;;;;;;;14.40;8.45;;;;;;;8.22;57.49;103385.59;4989928;28;114490;-77
2022/01/24 06:54:25;;;;;;;14.10;8.02;;;;;;;8.19;57.39;103375.00;4989031;28;123052;-77
2022/01/24 06:56:52;;;;;;;16.05;8.40;;;;;;;8.19;57.12;103382.91;4989324;28;123652;-77
2022/01/24 06:59:19;;;;;;;13.10;8.13;;;;;;;8.19;57.62;103385.56;4988374;28;114062;-75
2022/01/24 07:01:46;;;;;;;13.40;7.80;;;;;;;8.19;57.25;103390.84;5005205;28;114644;-75
2022/01/24 07:04:14;;;;;;;15.98;8.10;;;;;;;8.19;57.15;103385.56;4988584;28;123783;-75
2022/01/24 07:06:41;;;;;;;13.27;7.75;;;;;;;8.18;57.50;103383.81;4989094;28;125113;-75
2022/01/24 07:09:09;;;;;;;13.02;7.43;;;;;;;8.16;57.06;103391.72;5005484;28;115028;-75
2022/01/24 07:11:36;;;;;;;14.77;7.88;;;;;;;8.15;57.21;103391.69;4988483;28;114111;-75
2022/01/24 07:14:06;;;;;;;14.18;8.13;;;;;;;8.15;57.48;103394.34;4971665;28;122055;-76
2022/01/24 07:17:05;;;;;;;14.77;8.13;;;;;;;8.15;57.74;103394.34;4988814;28;124117;-76
2022/01/24 07:19:32;;;;;;;14.88;7.75;;;;;;;8.16;57.48;103390.84;4984952;28;114208;-76
2022/01/24 07:22:03;;;;;;;17.65;8.48;;;;;;;8.16;57.43;103390.84;4988910;28;113929;-76
2022/01/24 07:24:31;;;;;;;12.75;7.70;;;;;;;8.14;57.47;103397.88;4970592;28;123593;-76
2022/01/24 07:26:59;;;;;;;14.73;8.20;;;;;;;8.12;57.39;103394.34;4987242;28;123620;-76
2022/01/24 07:29:26;;;;;;;16.23;8.10;;;;;;;8.09;57.35;103389.91;4989205;28;114572;-76
2022/01/24 07:31:53;;;;;;;14.23;8.20;;;;;;;8.08;57.50;103395.16;4987971;28;112383;-76
2022/01/24 07:34:21;;;;;;;15.30;8.45;;;;;;;8.09;57.52;103396.94;4987891;28;122689;-75
2022/01/24 07:36:48;;;;;;;14.65;8.48;;;;;;;8.09;57.47;103394.31;5012130;28;121890;-76
2022/01/24 07:39:15;;;;;;;16.63;8.63;;;;;;;8.09;57.52;103394.31;4975300;28;113318;-75
2022/01/24 07:41:45;;;;;;;20.00;8.88;;;;;;;8.06;56.92;103400.47;5000834;28;114291;-76
2022/01/24 07:44:18;;;;;;;15.02;7.75;;;;;;;8.06;57.20;103405.75;4978298;28;123065;-76
2022/01/24 07:46:46;;;;;;;13.90;7.93;;;;;;;8.06;57.99;103404.84;4993021;28;123201;-76
2022/01/24 07:49:13;;;;;;;15.68;8.05;;;;;;;8.08;57.73;103419.81;4992717;28;113743;-75
2022/01/24 07:51:41;;;;;;;14.15;7.75;;;;;;;8.09;57.44;103415.44;4994083;28;113283;-76
2022/01/24 07:54:09;;;;;;;13.18;7.88;;;;;;;8.11;57.60;103421.59;4974955;28;123311;-76
2022/01/24 07:56:37;;;;;;;13.65;7.88;;;;;;;8.13;57.74;103427.75;4992734;28;123598;-76
2022/01/24 07:59:05;;;;;;;14.57;8.35;;;;;;;8.13;57.31;103422.47;4993009;28;113802;-76
2022/01/24 08:01:33;;;;;;;13.90;7.45;;;;;;;8.15;57.50;103431.28;4991224;28;113138;-76
2022/01/24 08:04:00;;;;;;;11.93;7.43;;;;;;;8.16;57.74;103430.44;5008329;28;123483;-76
2022/01/24 08:06:31;;;;;;;13.43;7.35;;;;;;;8.16;57.81;103433.94;4990366;28;125624;-76
2022/01/24 08:08:59;;;;;;;12.88;7.97;;;;;;;8.18;57.63;103426.03;4975078;28;114470;-76
2022/01/24 08:11:26;;;;;;;14.88;7.88;;;;;;;8.18;57.40;103431.31;4974783;28;113314;-76
2022/01/24 08:13:54;;;;;;;13.88;7.72;;;;;;;8.18;57.43;103432.19;5007059;28;122932;-75
2022/01/24 08:16:23;;;;;;;15.45;8.32;;;;;;;8.19;57.45;103433.06;4990183;28;122861;-76
2022/01/24 08:18:52;;;;;;;13.02;7.47;;;;;;;8.17;57.46;103434.81;4992850;28;114236;-76
2022/01/24 08:21:20;;;;;;;12.20;7.38;;;;;;;8.17;57.70;103430.44;4991024;28;112418;-76
2022/01/24 08:23:48;;;;;;;12.93;7.97;;;;;;;8.20;57.59;103432.22;5007092;28;123689;-76
2022/01/24 08:26:16;;;;;;;14.65;7.50;;;;;;;8.22;57.60;103422.53;4990630;28;123845;-76
2022/01/24 08:28:44;;;;;;;13.10;7.80;;;;;;;8.22;57.87;103422.53;4974925;28;113212;-76
2022/01/24 08:31:11;;;;;;;14.55;7.82;;;;;;;8.22;57.64;103433.09;4991417;28;114027;-76
2022/01/24 08:33:38;;;;;;;12.15;7.18;;;;;;;8.21;57.59;103425.16;4973896;28;123837;-76
2022/01/24 08:36:06;;;;;;;12.77;7.80;;;;;;;8.20;57.44;103434.84;4974361;28;123323;-76
2022/01/24 08:38:35;;;;;;;11.27;7.07;;;;;;;8.19;57.74;103433.06;4990385;28;114585;-76
2022/01/24 08:41:11;;;;;;;11.77;7.05;;;;;;;8.19;57.49;103433.06;4990490;28;113215;-76
2022/01/24 08:44:10;;;;;;;12.23;7.70;;;;;;;8.19;57.52;103433.97;4974130;28;123098;-76
2022/01/24 08:46:26;;;;;;;11.32;7.00;;;;;;;8.21;57.25;103436.59;4991698;28;123026;-76
2022/01/24 08:48:54;;;;;;;13.07;7.35;;;;;;;8.21;57.54;103436.59;4992053;28;114117;-76
2022/01/24 08:51:22;;;;;;;13.43;7.43;;;;;;;8.22;57.46;103433.09;4990090;28;114443;-76
2022/01/24 08:54:04;;;;;;;14.30;7.65;;;;;;;8.24;57.96;103426.06;4988989;28;124901;-76
2022/01/24 08:56:31;;;;;;;12.55;7.72;;;;;;;8.29;57.81;103427.00;5008328;28;125467;-76
2022/01/24 08:58:59;;;;;;;10.70;6.80;;;;;;;8.33;57.82;103425.25;4991778;28;113881;-76
2022/01/24 09:01:26;;;;;;;13.80;7.88;;;;;;;8.36;57.84;103426.16;4992180;28;114124;-77
2022/01/24 09:03:53;;;;;;;11.38;7.28;;;;;;;8.38;57.76;103429.69;4990439;28;123582;-76
2022/01/24 09:06:22;;;;;;;11.05;6.85;;;;;;;8.43;57.60;103431.50;4991337;28;124202;-77
2022/01/24 09:08:55;;;;;;;12.02;7.00;;;;;;;8.46;57.98;103436.81;4974395;28;113236;-75
2022/01/24 09:11:26;;;;;;;11.07;6.45;;;;;;;8.49;57.56;103427.13;4990047;28;114256;-76
2022/01/24 09:13:54;;;;;;;11.15;6.68;;;;;;;8.52;57.99;103432.44;4990499;28;124012;-76
2022/01/24 09:16:22;;;;;;;12.15;7.10;;;;;;;8.56;57.83;103428.06;5006908;28;123583;-77
2022/01/24 09:18:49;;;;;;;10.10;6.82;;;;;;;8.61;58.06;103426.31;4990603;28;113208;-74
2022/01/24 09:21:17;;;;;;;11.27;6.90;;;;;;;8.64;57.53;103431.59;5007336;28;113640;-76
2022/01/24 09:23:44;;;;;;;14.25;7.47;;;;;;;8.65;57.87;103433.38;4973622;28;122995;-76
2022/01/24 09:26:12;;;;;;;10.75;7.30;;;;;;;8.67;57.82;103436.91;4989484;28;123462;-77
2022/01/24 09:28:39;;;;;;;11.45;7.25;;;;;;;8.68;57.50;103437.78;4990230;28;115492;-76
2022/01/24 09:31:06;;;;;;;11.48;6.97;;;;;;;8.69;57.61;103435.16;4990429;28;114471;-77
2022/01/24 09:33:34;;;;;;;11.07;6.88;;;;;;;8.73;57.64;103431.66;4991462;28;124489;-77
2022/01/24 09:36:02;;;;;;;11.55;7.13;;;;;;;8.75;57.48;103432.53;4973157;28;123323;-77
2022/01/24 09:38:32;;;;;;;10.10;6.43;;;;;;;8.76;57.47;103426.41;4973469;28;114016;-76
2022/01/24 09:41:02;;;;;;;12.00;7.05;;;;;;;8.81;57.76;103438.72;4974203;28;113577;-76
2022/01/24 09:43:30;;;;;;;11.80;6.72;;;;;;;8.85;57.61;103436.09;4989800;28;123936;-76
2022/01/24 09:45:58;;;;;;;12.65;6.97;;;;;;;8.90;57.74;103439.66;5007200;28;123286;-76
2022/01/24 09:48:26;;;;;;;11.93;7.18;;;;;;;8.94;57.33;103429.97;4991839;28;115006;-76
2022/01/24 09:50:53;;;;;;;12.25;7.47;;;;;;;8.98;57.35;103425.59;4992368;28;114480;-76
2022/01/24 09:53:23;;;;;;;10.65;7.18;;;;;;;9.00;57.51;103424.69;4990559;28;124496;-77
2022/01/24 09:55:50;;;;;;;11.48;6.88;;;;;;;9.03;57.69;103430.00;4989943;28;123161;-76
2022/01/24 09:58:19;;;;;;;11.63;7.38;;;;;;;9.06;57.46;103430.03;4973619;28;113211;-76
2022/01/24 10:00:47;;;;;;;12.80;7.68;;;;;;;9.11;57.58;103425.63;4990696;28;113442;-74
2022/01/24 10:03:14;;;;;;;10.68;7.07;;;;;;;9.14;57.49;103425.63;4989360;28;122974;-77
2022/01/24 10:06:02;;;;;;;11.35;7.40;;;;;;;9.20;57.23;103421.25;4985414;28;123397;-77
2022/01/24 10:08:31;;;;;;;12.35;7.60;;;;;;;9.25;57.18;103424.75;4973985;28;113501;-76
2022/01/24 10:11:01;;;;;;;11.63;7.10;;;;;;;9.27;57.54;103423.91;4991269;28;114415;-76
2022/01/24 10:16:43;;;;;;;11.52;7.15;;;;;;;9.36;57.39;103420.38;4988639;28;122356;-78
2022/01/24 10:19:19;;;;;;;10.65;7.70;;;;;;;9.39;57.22;103415.09;4989002;28;115112;-76
2022/01/24 10:22:05;;;;;;;13.07;8.15;;;;;;;9.40;57.32;103422.16;4974928;28;114745;-76
2022/01/24 10:24:40;;;;;;;13.40;8.10;;;;;;;9.41;57.12;103415.97;4990244;28;123998;-76
2022/01/24 10:27:28;;;;;;;12.18;7.65;;;;;;;9.45;57.18;103424.81;4987712;28;123870;-75
2022/01/24 10:30:08;;;;;;;11.63;8.10;;;;;;;9.50;57.12;103428.34;4972794;28;113546;-76
2022/01/24 10:32:50;;;;;;;11.77;8.35;;;;;;;9.55;57.17;103423.97;4972557;28;113253;-76
2022/01/24 10:35:32;;;;;;;12.85;8.40;;;;;;;9.63;57.12;103416.03;4987368;28;123711;-76
2022/01/24 10:38:26;;;;;;;13.60;8.50;;;;;;;9.67;56.70;103417.78;4989215;28;123260;-77
2022/01/24 10:41:19;;;;;;;14.38;8.10;;;;;;;9.67;56.80;103413.34;4989934;28;115245;-76
2022/01/24 10:43:49;;;;;;;10.88;7.75;;;;;;;9.69;56.86;103405.44;4973238;28;113972;-77
2022/01/24 10:46:26;;;;;;;12.68;7.97;;;;;;;9.70;56.62;103404.53;4988373;28;123453;-77
2022/01/24 10:49:07;;;;;;;12.50;7.85;;;;;;;9.71;56.52;103403.66;5005158;28;123217;-77
2022/01/24 10:51:39;;;;;;;11.23;7.60;;;;;;;9.74;56.28;103399.25;4972457;28;114075;-77
2022/01/24 10:54:06;;;;;;;12.48;7.68;;;;;;;9.77;56.40;103408.06;4972700;28;113062;-77
2022/01/24 10:56:40;;;;;;;10.95;8.23;;;;;;;9.76;56.47;103407.19;4988519;28;123295;-77
2022/01/24 10:59:18;;;;;;;13.43;8.13;;;;;;;9.78;56.27;103400.13;4987362;28;123618;-77
2022/01/24 11:01:50;;;;;;;12.23;8.45;;;;;;;9.81;56.51;103394.81;4972152;28;113607;-77
2022/01/24 11:04:18;;;;;;;11.88;8.00;;;;;;;9.83;56.48;103394.81;4990336;28;113583;-77
2022/01/24 11:06:48;;;;;;;14.82;8.93;;;;;;;9.83;56.15;103387.78;4971964;28;122815;-76
2022/01/24 11:09:28;;;;;;;14.15;8.80;;;;;;;9.85;56.42;103380.72;4988546;28;122318;-76
2022/01/24 11:11:56;;;;;;;12.57;7.93;;;;;;;9.90;56.51;103373.63;4990113;28;113418;-77
2022/01/24 11:14:25;;;;;;;12.48;7.80;;;;;;;9.94;56.41;103375.44;4975168;28;114688;-77
2022/01/24 11:16:54;;;;;;;11.38;7.47;;;;;;;10.00;56.55;103369.25;4987985;28;124144;-77
2022/01/24 11:21:56;;;;;;;10.73;7.28;;;;;;;10.15;56.05;103373.59;5005082;28;113166;-77
2022/01/24 11:24:50;;;;;;;9.48;6.82;;;;;;;10.19;55.87;103369.16;4989123;28;114546;-77
2022/01/24 11:27:35;;;;;;;11.00;7.22;;;;;;;10.24;56.17;103370.91;4987902;28;123660;-77
2022/01/24 11:30:13;;;;;;;10.27;7.43;;;;;;;10.30;55.95;103373.59;4988199;28;122041;-77
2022/01/24 11:32:57;;;;;;;11.80;7.88;;;;;;;10.36;55.96;103366.50;4988268;28;113692;-77
2022/01/24 11:35:29;;;;;;;10.15;7.72;;;;;;;10.43;55.85;103368.25;4972135;28;112874;-76
2022/01/24 11:37:58;;;;;;;10.65;7.43;;;;;;;10.47;55.97;103372.63;4987473;28;123865;-77
2022/01/24 11:40:26;;;;;;;9.45;6.90;;;;;;;10.48;55.61;103379.72;4987884;28;123017;-77
2022/01/24 11:42:53;;;;;;;10.20;7.22;;;;;;;10.52;55.70;103381.47;4972169;28;113047;-77
2022/01/24 11:45:55;;;;;;;12.07;7.50;;;;;;;10.54;55.35;103377.03;5005094;28;113071;-76
2022/01/24 11:48:23;;;;;;;11.17;7.33;;;;;;;10.56;55.45;103375.25;4988038;28;123328;-77
2022/01/24 11:50:56;;;;;;;11.13;7.53;;;;;;;10.54;55.18;103371.72;4987435;28;123072;-77
2022/01/24 11:53:28;;;;;;;11.48;7.93;;;;;;;10.54;55.36;103371.72;4972523;28;113419;-77
2022/01/24 11:55:56;;;;;;;11.73;7.53;;;;;;;10.55;55.30;103373.50;4972142;28;113095;-77
2022/01/24 11:58:32;;;;;;;10.65;7.93;;;;;;;10.56;55.10;103362.00;4987764;28;123102;-76
2022/01/24 12:01:07;;;;;;;12.73;8.15;;;;;;;10.56;54.79;103359.34;4972292;28;123374;-77
2022/01/24 12:03:35;;;;;;;13.32;8.43;;;;;;;10.56;54.81;103354.06;4988080;28;114091;-77
2022/01/24 12:06:09;;;;;;;11.90;7.60;;;;;;;10.55;54.71;103359.34;4989998;28;114736;-77
2022/01/24 12:09:02;;;;;;;11.95;8.30;;;;;;;10.54;54.83;103355.84;4987821;28;123838;-77
2022/01/24 12:11:34;;;;;;;10.95;8.02;;;;;;;10.56;55.04;103354.06;4987782;28;123392;-77
2022/01/24 12:14:23;;;;;;;14.10;8.65;;;;;;;10.59;55.01;103354.06;4988260;28;113528;-77
2022/01/24 12:16:52;;;;;;;13.07;8.15;;;;;;;10.64;54.86;103362.88;4971454;28;113173;-77
2022/01/24 12:19:28;;;;;;;11.85;8.13;;;;;;;10.68;54.78;103361.06;4992796;28;123982;-76
2022/01/24 12:21:55;;;;;;;12.05;8.05;;;;;;;10.71;55.07;103363.72;4974973;28;123107;-77
2022/01/24 12:24:22;;;;;;;11.48;7.85;;;;;;;10.75;54.81;103359.28;4987310;28;112762;-77
2022/01/24 12:27:04;;;;;;;12.95;8.10;;;;;;;10.76;54.57;103350.44;5002805;28;114147;-77
2022/01/24 12:29:41;;;;;;;12.70;8.48;;;;;;;10.80;54.66;103344.22;4974274;28;124131;-77
2022/01/24 12:32:21;;;;;;;12.10;7.97;;;;;;;10.86;54.43;103344.19;4988817;28;123437;-77
2022/01/24 12:34:48;;;;;;;12.48;8.45;;;;;;;10.95;54.90;103341.47;4993180;28;112866;-77
2022/01/24 12:37:24;;;;;;;13.27;8.52;;;;;;;11.03;54.55;103339.66;4990900;28;113553;-77
2022/01/24 12:39:55;;;;;;;11.43;8.27;;;;;;;11.16;54.83;103334.28;4990661;28;124513;-77
2022/01/24 12:42:34;;;;;;;11.13;7.63;;;;;;;11.27;54.39;103332.41;4992668;28;124250;-77
2022/01/24 12:48:13;;;;;;;11.68;7.50;;;;;;;11.49;54.69;103333.13;5008301;28;113296;-77
2022/01/24 12:50:42;;;;;;;11.32;7.35;;;;;;;11.58;54.49;103316.22;4974076;28;123198;-77
2022/01/24 12:53:12;;;;;;;12.63;7.80;;;;;;;11.65;54.38;103317.94;4991744;28;123692;-77
2022/01/24 12:55:40;;;;;;;11.18;7.70;;;;;;;11.70;53.88;103316.13;4990315;28;114602;-77
2022/01/24 12:58:07;;;;;;;10.93;7.55;;;;;;;11.73;53.91;103316.06;4990870;28;114805;-77